createdAt,value
2019-05-29T00:00:07.801Z,19.04
2019-05-29T00:05:08.455Z,19.09
2019-05-29T00:10:08.943Z,19.06
2019-05-29T00:15:06.389Z,19.11
2019-05-29T00:20:08.283Z,19.03
2019-05-29T00:25:06.405Z,19.00
2019-05-29T00:30:06.934Z,18.93
2019-05-29T00:35:08.227Z,18.81
2019-05-29T00:40:08.981Z,18.81
2019-05-29T00:45:07.294Z,18.83
2019-05-29T00:50:09.899Z,18.82
2019-05-29T00:55:08.559Z,18.97
2019-05-29T01:00:07.214Z,18.92
2019-05-29T01:05:06.266Z,18.99
2019-05-29T01:10:07.620Z,18.84
2019-05-29T01:15:05.904Z,18.82
2019-05-29T01:20:05.667Z,18.79
2019-05-29T01:25:04.981Z,18.77
2019-05-29T01:30:02.408Z,18.65
2019-05-29T01:34:59.496Z,18.66
2019-05-29T01:39:56.590Z,18.62
2019-05-29T01:45:07.041Z,18.47
2019-05-29T01:49:54.293Z,18.35
2019-05-29T01:54:51.310Z,18.27
2019-05-29T01:59:48.446Z,18.08
2019-05-29T02:04:45.571Z,17.95
2019-05-29T02:09:42.692Z,17.87
2019-05-29T02:14:39.747Z,17.82
2019-05-29T02:19:36.906Z,17.68
2019-05-29T02:24:33.972Z,17.58
2019-05-29T02:29:31.056Z,17.68
2019-05-29T02:34:29.946Z,17.68
2019-05-29T02:39:27.680Z,17.84
2019-05-29T02:44:27.583Z,18.00
2019-05-29T02:49:25.750Z,17.94
2019-05-29T02:54:24.722Z,18.02
2019-05-29T02:59:23.442Z,18.23
2019-05-29T03:04:24.113Z,18.13
2019-05-29T03:09:22.731Z,18.05
2019-05-29T03:14:22.878Z,17.99
2019-05-29T03:19:20.229Z,18.07
2019-05-29T03:24:17.288Z,18.26
2019-05-29T03:29:14.517Z,18.13
2019-05-29T03:34:12.052Z,18.33
2019-05-29T03:39:09.606Z,18.35
2019-05-29T03:44:10.344Z,18.41
2019-05-29T03:49:09.550Z,18.48
2019-05-29T03:54:06.562Z,18.56
2019-05-29T03:59:03.795Z,18.66
2019-05-29T04:04:00.760Z,18.78
2019-05-29T04:08:57.895Z,18.90
2019-05-29T04:13:55.924Z,18.99
2019-05-29T04:18:54.356Z,19.11
2019-05-29T04:23:57.292Z,19.20
2019-05-29T04:28:55.984Z,19.31
2019-05-29T04:33:53.056Z,19.39
2019-05-29T04:38:50.312Z,19.58
2019-05-29T04:43:56.732Z,19.61
2019-05-29T04:48:53.175Z,19.74
2019-05-29T04:53:51.821Z,19.90
2019-05-29T04:58:50.872Z,20.30
2019-05-29T05:03:48.002Z,20.65
2019-05-29T05:08:50.864Z,21.30
2019-05-29T05:13:47.962Z,21.46
2019-05-29T05:18:57.896Z,22.20
2019-05-29T05:23:55.231Z,22.46
2019-05-29T05:28:54.722Z,22.43
2019-05-29T05:33:53.084Z,22.37
2019-05-29T05:38:54.647Z,22.48
2019-05-29T05:43:57.304Z,23.02
2019-05-29T05:48:54.641Z,23.32
2019-05-29T05:53:54.564Z,23.58
2019-05-29T05:58:51.819Z,23.65
2019-05-29T06:03:50.685Z,23.51
2019-05-29T06:08:49.038Z,23.38
2019-05-29T06:13:49.506Z,23.28
2019-05-29T06:18:52.512Z,22.51
2019-05-29T06:23:52.403Z,23.26
2019-05-29T06:28:49.439Z,23.24
2019-05-29T06:33:48.417Z,23.09
2019-05-29T06:38:46.709Z,22.86
2019-05-29T06:43:49.683Z,22.69
2019-05-29T06:49:05.748Z,22.44
2019-05-29T06:53:50.716Z,22.28
2019-05-29T06:58:49.676Z,22.29
2019-05-29T07:03:48.163Z,22.15
2019-05-29T07:08:50.397Z,22.17
2019-05-29T07:13:50.680Z,22.21
2019-05-29T07:23:50.901Z,22.88
2019-05-29T07:29:07.001Z,23.13
2019-05-29T07:33:51.294Z,23.37
2019-05-29T07:39:01.761Z,23.31
2019-05-29T07:43:48.658Z,23.37
2019-05-29T07:48:48.132Z,23.29
2019-05-29T07:53:46.677Z,23.13
2019-05-29T07:59:01.593Z,23.34
2019-05-29T08:03:50.348Z,23.54
2019-05-29T08:08:49.588Z,23.73
2019-05-29T08:13:49.856Z,23.75
2019-05-29T08:18:53.379Z,23.63
2019-05-29T08:23:56.526Z,23.78
2019-05-29T08:28:57.264Z,23.97
2019-05-29T08:33:58.461Z,24.46
2019-05-29T08:38:55.636Z,24.77
2019-05-29T08:43:57.681Z,24.68
2019-05-29T08:49:00.628Z,24.95
2019-05-29T08:53:57.904Z,24.57
2019-05-29T08:58:56.931Z,24.71
2019-05-29T09:04:00.354Z,24.52
2019-05-29T09:08:59.286Z,24.75
2019-05-29T09:14:02.120Z,24.88
2019-05-29T09:19:00.229Z,25.26
2019-05-29T09:23:59.244Z,25.36
2019-05-29T09:28:58.308Z,25.58
2019-05-29T09:33:57.253Z,25.63
2019-05-29T09:38:54.618Z,26.03
2019-05-29T09:43:59.711Z,26.15
2019-05-29T09:49:01.299Z,25.79
2019-05-29T09:54:01.025Z,26.29
2019-05-29T09:58:59.773Z,26.34
2019-05-29T10:03:59.236Z,27.32
2019-05-29T10:09:00.116Z,27.69
2019-05-29T10:14:00.548Z,28.66
2019-05-29T10:19:01.535Z,27.94
2019-05-29T10:24:04.152Z,27.24
2019-05-29T10:29:08.188Z,26.98
2019-05-29T10:34:06.775Z,26.86
2019-05-29T10:39:05.678Z,26.25
2019-05-29T10:44:04.011Z,25.83
2019-05-29T10:49:04.795Z,25.59
2019-05-29T10:54:01.921Z,25.63
2019-05-29T10:59:01.445Z,25.52
2019-05-29T11:03:58.476Z,25.49
2019-05-29T11:09:01.386Z,25.72
2019-05-29T11:14:00.358Z,25.12
2019-05-29T11:18:59.211Z,24.94
2019-05-29T11:23:56.241Z,25.31
2019-05-29T11:28:58.606Z,25.90
2019-05-29T11:33:57.187Z,26.32
2019-05-29T11:39:03.254Z,26.71
2019-05-29T11:44:03.219Z,26.81
2019-05-29T11:49:00.421Z,27.04
2019-05-29T11:53:57.689Z,26.56
2019-05-29T11:58:59.022Z,26.79
2019-05-29T12:04:19.577Z,26.63
2019-05-29T12:08:57.914Z,25.90
2019-05-29T12:13:58.050Z,24.71
2019-05-29T12:18:58.276Z,23.97
2019-05-29T12:23:58.214Z,23.38
2019-05-29T12:29:08.398Z,22.93
2019-05-29T12:34:12.130Z,22.55
2019-05-29T12:39:08.093Z,22.21
2019-05-29T12:44:08.287Z,21.80
2019-05-29T12:49:09.876Z,21.14
2019-05-29T12:54:09.887Z,21.05
2019-05-29T12:59:08.870Z,20.76
2019-05-29T13:04:14.311Z,20.52
2019-05-29T13:09:13.249Z,20.51
2019-05-29T13:14:12.353Z,20.58
2019-05-29T13:19:11.366Z,20.58
2019-05-29T13:24:11.221Z,20.46
2019-05-29T13:29:08.092Z,20.59
2019-05-29T13:34:07.197Z,20.78
2019-05-29T13:39:08.049Z,20.66
2019-05-29T13:44:06.803Z,20.49
2019-05-29T13:49:10.842Z,20.40
2019-05-29T13:54:14.037Z,20.42
2019-05-29T13:59:10.931Z,20.14
2019-05-29T14:04:09.361Z,20.02
2019-05-29T14:09:09.153Z,20.03
2019-05-29T14:14:13.270Z,19.87
2019-05-29T14:19:13.550Z,19.77
2019-05-29T14:24:26.566Z,19.77
2019-05-29T14:29:12.662Z,19.78
2019-05-29T14:34:10.819Z,19.52
2019-05-29T14:39:08.080Z,19.85
2019-05-29T14:44:08.043Z,19.74
2019-05-29T14:49:06.404Z,19.59
2019-05-29T14:54:06.835Z,19.66
2019-05-29T14:59:05.632Z,19.53
2019-05-29T15:04:03.623Z,19.39
2019-05-29T15:09:03.571Z,19.44
2019-05-29T15:14:06.009Z,19.42
2019-05-29T15:19:06.776Z,19.25
2019-05-29T15:24:05.694Z,19.11
2019-05-29T15:29:04.251Z,18.85
2019-05-29T15:34:02.906Z,18.79
2019-05-29T15:39:06.488Z,18.63
2019-05-29T15:44:04.656Z,18.65
2019-05-29T15:49:02.833Z,18.48
2019-05-29T15:53:59.965Z,18.50
2019-05-29T15:58:58.931Z,18.41
2019-05-29T16:03:56.089Z,18.29
2019-05-29T16:08:55.281Z,18.11
2019-05-29T16:13:55.143Z,18.21
2019-05-29T16:18:53.096Z,17.96
2019-05-29T16:23:52.930Z,17.93
2019-05-29T16:28:49.976Z,17.77
2019-05-29T16:33:47.583Z,17.73
2019-05-29T16:38:51.361Z,17.55
2019-05-29T16:43:50.931Z,17.59
2019-05-29T16:48:47.989Z,17.30
2019-05-29T16:53:45.129Z,17.36
2019-05-29T16:58:42.221Z,17.24
2019-05-29T17:03:39.553Z,17.12
2019-05-29T17:08:36.781Z,17.11
2019-05-29T17:13:34.502Z,17.08
2019-05-29T17:18:33.775Z,16.97
2019-05-29T17:23:31.586Z,17.06
2019-05-29T17:28:29.141Z,16.89
2019-05-29T17:33:26.392Z,16.89
2019-05-29T17:38:23.488Z,16.81
2019-05-29T17:43:24.564Z,16.56
2019-05-29T17:48:20.027Z,16.69
2019-05-29T17:53:17.800Z,16.61
2019-05-29T17:58:18.381Z,16.53
2019-05-29T18:03:16.223Z,16.46
2019-05-29T18:08:13.341Z,16.42
2019-05-29T18:13:10.404Z,16.18
2019-05-29T18:18:07.542Z,16.41
2019-05-29T18:23:06.991Z,16.40
2019-05-29T18:28:09.203Z,16.39
2019-05-29T18:33:06.442Z,16.30
2019-05-29T18:38:05.141Z,16.22
2019-05-29T18:43:02.444Z,16.11
2019-05-29T18:48:01.424Z,16.25
2019-05-29T18:52:58.634Z,16.01
2019-05-29T18:57:55.794Z,16.02
2019-05-29T19:02:54.654Z,15.82
2019-05-29T19:07:51.739Z,15.86
2019-05-29T19:12:48.993Z,15.94
2019-05-29T19:17:46.063Z,15.76
2019-05-29T19:22:47.799Z,15.56
2019-05-29T19:27:45.487Z,15.86
2019-05-29T19:32:44.695Z,15.61
2019-05-29T19:37:41.814Z,15.58
2019-05-29T19:42:40.926Z,15.61
2019-05-29T19:47:38.953Z,15.44
2019-05-29T19:52:38.432Z,15.37
2019-05-29T19:57:52.499Z,15.30
2019-05-29T20:02:36.795Z,15.44
2019-05-29T20:07:33.874Z,15.32
2019-05-29T20:12:31.603Z,15.42
2019-05-29T20:17:29.839Z,15.41
2019-05-29T20:22:26.996Z,15.36
2019-05-29T20:27:25.922Z,15.25
2019-05-29T20:32:23.142Z,15.31
2019-05-29T20:37:21.975Z,15.27
2019-05-29T20:42:20.188Z,15.09
2019-05-29T20:47:17.395Z,15.11
2019-05-29T20:52:15.461Z,15.15
2019-05-29T20:57:12.527Z,14.88
2019-05-29T21:02:09.706Z,15.14
2019-05-29T21:07:07.041Z,15.04
2019-05-29T21:12:04.863Z,15.06
2019-05-29T21:17:02.345Z,15.03
2019-05-29T21:22:01.915Z,14.91
2019-05-29T21:26:58.954Z,14.87
2019-05-29T21:31:56.840Z,14.93
2019-05-29T21:36:53.884Z,14.98
2019-05-29T21:41:51.022Z,14.86
2019-05-29T21:46:51.003Z,14.82
2019-05-29T21:51:48.557Z,14.69
2019-05-29T22:02:03.095Z,14.44
2019-05-29T22:07:00.206Z,14.29
2019-05-29T22:11:58.454Z,14.61
2019-05-29T22:16:56.844Z,14.76
2019-05-29T22:21:54.988Z,14.77
2019-05-29T22:26:53.146Z,14.80
2019-05-29T22:31:51.343Z,14.80
2019-05-29T22:36:48.641Z,14.72
2019-05-29T22:41:47.594Z,14.97
2019-05-29T22:46:44.797Z,14.99
2019-05-29T22:51:41.970Z,14.83
2019-05-29T22:56:39.188Z,14.70
2019-05-29T23:01:37.232Z,14.65
2019-05-29T23:06:35.361Z,14.55
2019-05-29T23:11:32.489Z,14.64
2019-05-29T23:16:34.651Z,14.70
2019-05-29T23:21:31.486Z,14.71
2019-05-29T23:26:28.570Z,14.53
2019-05-29T23:31:26.089Z,14.48
2019-05-29T23:36:23.388Z,14.73
2019-05-29T23:41:20.488Z,14.87
2019-05-29T23:46:17.612Z,14.92
2019-05-29T23:51:14.725Z,14.60
2019-05-29T23:56:11.818Z,14.68
